Etusivu
METAR-TAF:

METAR-TAF

Lentoasemat :

F 7 Såtenäs

Såtenäs, Ruotsi

Leveyspiiri: 58-26N, Pituuspiiri: 012-42E, korkeus merenpinnasta: 54 m

Tämänhetkinen sää

Tämä raportti tehtiin 24 minuuttia sitten, kello 04.50 UTC
Tuuli 20 kn lounaasta
Lämpötila 10°C
Kosteus 100%
Ilmanpaine 1013 hPa
Näkyvyys: 8000 m
Muutamia pilviä 800 ft:n korkeudessa
Hajonneita pilviä 1300 ft:n korkeudessa
heikkoa tihkusadetta

METAR: ESIB 260450Z 22020KT 8000 -DZ FEW008 BKN013 10/10 Q1013

Aika: 07:14 (05:14 UTC)


TAF: puuttuu

Säähavainnot ja -ennusteet yli 4000 lentoasemalta (METAR- ja TAF-raportit).

Käytössä olevat sääasemat on merkitty karttaan keltaisilla ja punaisilla pisteillä.

Aseta hiiri pisteen päälle nähdäksesi sääaseman nimen.

Klikkaa sitten nähdäksesi säähavainnot ja -ennusteet.

Kartan vaihtaminen: klikkaa mustalla rastilla varustettuja vihreitä pisteitä, niin voit zoomata sisään; viivalla varustettua vihreää pistettä, niin voit zoomata ulos tai vihreitä nuolia, niin pääset viereisille kartoille.


METAR-TAF: